sensor_id;sensor_type;location;lat;lon;timestamp;pressure;altitude;pressure_sealevel;temperature;humidity
24558;BME280;12726;49.148;8.582;2022-07-11T00:01:53;101093.00;;;17.81;65.34
24558;BME280;12726;49.148;8.582;2022-07-11T00:04:41;101087.78;;;17.79;65.51
24558;BME280;12726;49.148;8.582;2022-07-11T00:07:27;101087.44;;;17.76;65.56
24558;BME280;12726;49.148;8.582;2022-07-11T00:10:13;101087.09;;;17.72;65.66
24558;BME280;12726;49.148;8.582;2022-07-11T00:12:58;101084.38;;;17.72;65.97
24558;BME280;12726;49.148;8.582;2022-07-11T00:15:45;101078.59;;;17.69;66.22
24558;BME280;12726;49.148;8.582;2022-07-11T00:18:30;101082.38;;;17.68;66.28
24558;BME280;12726;49.148;8.582;2022-07-11T00:21:16;101080.38;;;17.63;66.17
24558;BME280;12726;49.148;8.582;2022-07-11T00:24:01;101077.66;;;17.63;66.32
24558;BME280;12726;49.148;8.582;2022-07-11T00:26:48;101081.19;;;17.64;66.61
24558;BME280;12726;49.148;8.582;2022-07-11T00:29:33;101067.34;;;17.65;66.40
24558;BME280;12726;49.148;8.582;2022-07-11T00:32:20;101070.06;;;17.65;66.21
24558;BME280;12726;49.148;8.582;2022-07-11T00:35:06;101071.72;;;17.66;66.01
24558;BME280;12726;49.148;8.582;2022-07-11T00:37:52;101070.91;;;17.66;66.47
24558;BME280;12726;49.148;8.582;2022-07-11T00:40:37;101074.69;;;17.65;66.46
24558;BME280;12726;49.148;8.582;2022-07-11T00:43:30;101066.75;;;17.63;66.67
24558;BME280;12726;49.148;8.582;2022-07-11T00:46:15;101069.25;;;17.65;66.77
24558;BME280;12726;49.148;8.582;2022-07-11T00:49:02;101062.38;;;17.62;66.82
24558;BME280;12726;49.148;8.582;2022-07-11T00:51:48;101056.94;;;17.62;66.67
24558;BME280;12726;49.148;8.582;2022-07-11T00:54:35;101054.69;;;17.59;66.63
24558;BME280;12726;49.148;8.582;2022-07-11T00:57:21;101069.47;;;17.63;66.63
24558;BME280;12726;49.148;8.582;2022-07-11T01:00:08;101065.34;;;17.60;66.95
24558;BME280;12726;49.148;8.582;2022-07-11T01:02:53;101058.59;;;17.63;66.71
24558;BME280;12726;49.148;8.582;2022-07-11T01:05:40;101058.84;;;17.62;66.87
24558;BME280;12726;49.148;8.582;2022-07-11T01:08:26;101058.47;;;17.58;67.13
24558;BME280;12726;49.148;8.582;2022-07-11T01:11:15;101057.16;;;17.60;66.93
24558;BME280;12726;49.148;8.582;2022-07-11T01:14:00;101049.00;;;17.60;66.66
24558;BME280;12726;49.148;8.582;2022-07-11T01:16:46;101046.03;;;17.62;66.68
24558;BME280;12726;49.148;8.582;2022-07-11T01:19:31;101055.03;;;17.63;66.46
24558;BME280;12726;49.148;8.582;2022-07-11T01:22:21;101047.47;;;17.65;66.34
24558;BME280;12726;49.148;8.582;2022-07-11T01:25:10;101047.13;;;17.61;66.81
24558;BME280;12726;49.148;8.582;2022-07-11T01:28:13;101042.72;;;17.60;66.69
24558;BME280;12726;49.148;8.582;2022-07-11T01:30:59;101045.31;;;17.55;67.10
24558;BME280;12726;49.148;8.582;2022-07-11T01:33:45;101039.56;;;17.51;67.05
24558;BME280;12726;49.148;8.582;2022-07-11T01:36:30;101034.84;;;17.47;67.62
24558;BME280;12726;49.148;8.582;2022-07-11T01:39:16;101035.47;;;17.37;68.27
24558;BME280;12726;49.148;8.582;2022-07-11T01:42:03;101041.28;;;17.29;68.56
24558;BME280;12726;49.148;8.582;2022-07-11T01:44:48;101043.09;;;17.23;69.37
24558;BME280;12726;49.148;8.582;2022-07-11T01:47:34;101039.66;;;17.16;69.50
24558;BME280;12726;49.148;8.582;2022-07-11T01:50:19;101039.22;;;17.08;70.08
24558;BME280;12726;49.148;8.582;2022-07-11T01:53:05;101037.69;;;17.00;70.17
24558;BME280;12726;49.148;8.582;2022-07-11T01:55:50;101042.78;;;16.97;70.51
24558;BME280;12726;49.148;8.582;2022-07-11T01:58:37;101038.53;;;16.89;70.78
24558;BME280;12726;49.148;8.582;2022-07-11T02:01:22;101036.78;;;16.83;71.02
24558;BME280;12726;49.148;8.582;2022-07-11T02:04:08;101038.53;;;16.77;71.20
24558;BME280;12726;49.148;8.582;2022-07-11T02:06:53;101032.66;;;16.69;71.78
24558;BME280;12726;49.148;8.582;2022-07-11T02:09:39;101040.44;;;16.65;71.95
24558;BME280;12726;49.148;8.582;2022-07-11T02:12:24;101040.53;;;16.59;72.31
24558;BME280;12726;49.148;8.582;2022-07-11T02:15:11;101035.31;;;16.57;72.24
24558;BME280;12726;49.148;8.582;2022-07-11T02:17:57;101031.22;;;16.55;72.37
24558;BME280;12726;49.148;8.582;2022-07-11T02:20:42;101041.25;;;16.54;72.34
24558;BME280;12726;49.148;8.582;2022-07-11T02:23:29;101034.75;;;16.55;72.51
24558;BME280;12726;49.148;8.582;2022-07-11T02:26:14;101041.81;;;16.56;72.50
24558;BME280;12726;49.148;8.582;2022-07-11T02:29:00;101036.28;;;16.51;72.88
24558;BME280;12726;49.148;8.582;2022-07-11T02:31:46;101037.94;;;16.40;73.36
24558;BME280;12726;49.148;8.582;2022-07-11T02:34:32;101030.69;;;16.34;73.80
24558;BME280;12726;49.148;8.582;2022-07-11T02:37:17;101029.31;;;16.32;73.86
24558;BME280;12726;49.148;8.582;2022-07-11T02:40:05;101039.22;;;16.26;74.23
24558;BME280;12726;49.148;8.582;2022-07-11T02:42:51;101039.69;;;16.23;74.13
24558;BME280;12726;49.148;8.582;2022-07-11T02:45:36;101036.97;;;16.23;74.32
24558;BME280;12726;49.148;8.582;2022-07-11T02:48:23;101038.03;;;16.22;74.85
24558;BME280;12726;49.148;8.582;2022-07-11T02:51:08;101026.31;;;16.22;74.63
24558;BME280;12726;49.148;8.582;2022-07-11T02:53:54;101036.97;;;16.23;74.76
24558;BME280;12726;49.148;8.582;2022-07-11T02:56:39;101038.84;;;16.23;74.93
24558;BME280;12726;49.148;8.582;2022-07-11T02:59:25;101040.75;;;16.22;74.99
24558;BME280;12726;49.148;8.582;2022-07-11T03:02:10;101040.13;;;16.20;74.78
24558;BME280;12726;49.148;8.582;2022-07-11T03:04:57;101031.75;;;16.22;74.94
24558;BME280;12726;49.148;8.582;2022-07-11T03:07:43;101034.97;;;16.19;75.52
24558;BME280;12726;49.148;8.582;2022-07-11T03:10:28;101033.91;;;16.20;75.70
24558;BME280;12726;49.148;8.582;2022-07-11T03:13:13;101038.03;;;16.22;75.71
24558;BME280;12726;49.148;8.582;2022-07-11T03:15:58;101036.03;;;16.18;75.92
24558;BME280;12726;49.148;8.582;2022-07-11T03:18:44;101040.25;;;16.14;76.14
24558;BME280;12726;49.148;8.582;2022-07-11T03:21:31;101040.25;;;16.14;76.35
24558;BME280;12726;49.148;8.582;2022-07-11T03:24:16;101040.25;;;16.14;76.39
24558;BME280;12726;49.148;8.582;2022-07-11T03:27:01;101035.28;;;16.11;76.71
24558;BME280;12726;49.148;8.582;2022-07-11T03:29:47;101027.97;;;16.11;76.53
24558;BME280;12726;49.148;8.582;2022-07-11T03:32:32;101033.97;;;16.13;76.74
24558;BME280;12726;49.148;8.582;2022-07-11T03:35:18;101033.53;;;16.16;76.77
24558;BME280;12726;49.148;8.582;2022-07-11T03:38:24;101036.03;;;16.18;76.87
24558;BME280;12726;49.148;8.582;2022-07-11T03:41:09;101043.69;;;16.21;76.83
24558;BME280;12726;49.148;8.582;2022-07-11T03:43:55;101039.44;;;16.25;76.51
24558;BME280;12726;49.148;8.582;2022-07-11T03:46:40;101040.06;;;16.27;76.56
24558;BME280;12726;49.148;8.582;2022-07-11T03:49:26;101035.69;;;16.26;76.80
24558;BME280;12726;49.148;8.582;2022-07-11T03:52:11;101037.78;;;16.24;76.92
24558;BME280;12726;49.148;8.582;2022-07-11T03:54:57;101034.84;;;16.25;76.86
24558;BME280;12726;49.148;8.582;2022-07-11T03:57:43;101028.59;;;16.25;77.08
24558;BME280;12726;49.148;8.582;2022-07-11T04:00:28;101033.78;;;16.26;77.14
24558;BME280;12726;49.148;8.582;2022-07-11T04:03:14;101031.41;;;16.30;77.17
24558;BME280;12726;49.148;8.582;2022-07-11T04:05:59;101030.97;;;16.33;77.05
24558;BME280;12726;49.148;8.582;2022-07-11T04:08:45;101031.53;;;16.35;77.06
24558;BME280;12726;49.148;8.582;2022-07-11T04:11:32;101036.97;;;16.35;77.02
24558;BME280;12726;49.148;8.582;2022-07-11T04:14:17;101026.69;;;16.37;77.33
24558;BME280;12726;49.148;8.582;2022-07-11T04:17:03;101026.59;;;16.43;77.15
24558;BME280;12726;49.148;8.582;2022-07-11T04:19:49;101021.25;;;16.49;77.14
24558;BME280;12726;49.148;8.582;2022-07-11T04:22:34;101027.41;;;16.56;76.90
24558;BME280;12726;49.148;8.582;2022-07-11T04:25:20;101031.53;;;16.58;76.78
24558;BME280;12726;49.148;8.582;2022-07-11T04:28:07;101031.94;;;16.62;76.76
24558;BME280;12726;49.148;8.582;2022-07-11T04:30:52;101028.28;;;16.68;76.44
24558;BME280;12726;49.148;8.582;2022-07-11T04:33:37;101025.44;;;16.74;76.55
24558;BME280;12726;49.148;8.582;2022-07-11T04:36:22;101032.88;;;16.79;75.87
24558;BME280;12726;49.148;8.582;2022-07-11T04:39:07;101025.63;;;16.84;75.95
24558;BME280;12726;49.148;8.582;2022-07-11T04:41:53;101027.66;;;16.89;76.31
24558;BME280;12726;49.148;8.582;2022-07-11T04:44:40;101028.22;;;16.91;76.51
24558;BME280;12726;49.148;8.582;2022-07-11T04:47:26;101027.75;;;16.94;76.81
24558;BME280;12726;49.148;8.582;2022-07-11T04:50:12;101031.78;;;17.03;76.78
24558;BME280;12726;49.148;8.582;2022-07-11T04:52:57;101029.53;;;17.12;76.33
24558;BME280;12726;49.148;8.582;2022-07-11T04:55:43;101037.88;;;17.22;75.83
24558;BME280;12726;49.148;8.582;2022-07-11T04:58:28;101026.38;;;17.32;76.20
24558;BME280;12726;49.148;8.582;2022-07-11T05:01:17;101036.88;;;17.40;76.04
24558;BME280;12726;49.148;8.582;2022-07-11T05:04:03;101038.13;;;17.49;76.07
24558;BME280;12726;49.148;8.582;2022-07-11T05:06:48;101027.94;;;17.56;75.01
24558;BME280;12726;49.148;8.582;2022-07-11T05:09:34;101029.00;;;17.67;72.78
24558;BME280;12726;49.148;8.582;2022-07-11T05:12:20;101036.41;;;17.71;72.35
24558;BME280;12726;49.148;8.582;2022-07-11T05:15:06;101039.72;;;17.73;71.92
24558;BME280;12726;49.148;8.582;2022-07-11T05:17:53;101048.06;;;17.83;72.27
24558;BME280;12726;49.148;8.582;2022-07-11T05:20:39;101047.84;;;17.85;71.03
24558;BME280;12726;49.148;8.582;2022-07-11T05:23:24;101048.75;;;17.90;70.84
24558;BME280;12726;49.148;8.582;2022-07-11T05:26:10;101048.13;;;18.00;71.59
24558;BME280;12726;49.148;8.582;2022-07-11T05:28:55;101051.59;;;18.12;71.65
24558;BME280;12726;49.148;8.582;2022-07-11T05:31:40;101050.63;;;18.18;69.94
24558;BME280;12726;49.148;8.582;2022-07-11T05:34:27;101053.56;;;18.33;68.74
24558;BME280;12726;49.148;8.582;2022-07-11T05:37:13;101056.72;;;18.42;69.42
24558;BME280;12726;49.148;8.582;2022-07-11T05:39:58;101051.94;;;18.49;68.82
24558;BME280;12726;49.148;8.582;2022-07-11T05:42:44;101053.78;;;18.60;68.37
24558;BME280;12726;49.148;8.582;2022-07-11T05:45:29;101053.59;;;18.67;67.90
24558;BME280;12726;49.148;8.582;2022-07-11T05:48:15;101055.72;;;18.82;67.21
24558;BME280;12726;49.148;8.582;2022-07-11T05:51:02;101050.59;;;18.85;66.89
24558;BME280;12726;49.148;8.582;2022-07-11T05:53:47;101053.91;;;18.87;67.48
24558;BME280;12726;49.148;8.582;2022-07-11T05:56:33;101057.56;;;18.98;67.58
24558;BME280;12726;49.148;8.582;2022-07-11T05:59:19;101045.16;;;19.07;66.78
24558;BME280;12726;49.148;8.582;2022-07-11T06:02:04;101052.72;;;19.22;65.60
24558;BME280;12726;49.148;8.582;2022-07-11T06:04:50;101057.75;;;19.30;65.51
24558;BME280;12726;49.148;8.582;2022-07-11T06:07:37;101064.06;;;19.35;65.16
24558;BME280;12726;49.148;8.582;2022-07-11T06:10:41;101060.28;;;19.36;65.16
24558;BME280;12726;49.148;8.582;2022-07-11T06:13:27;101060.75;;;19.50;65.09
24558;BME280;12726;49.148;8.582;2022-07-11T06:16:13;101067.59;;;19.52;65.04
24558;BME280;12726;49.148;8.582;2022-07-11T06:18:59;101067.84;;;19.51;64.51
24558;BME280;12726;49.148;8.582;2022-07-11T06:21:44;101068.03;;;19.44;63.35
24558;BME280;12726;49.148;8.582;2022-07-11T06:24:31;101066.44;;;19.48;64.18
24558;BME280;12726;49.148;8.582;2022-07-11T06:27:16;101060.28;;;19.58;62.74
24558;BME280;12726;49.148;8.582;2022-07-11T06:30:02;101056.41;;;19.54;62.88
24558;BME280;12726;49.148;8.582;2022-07-11T06:32:47;101058.22;;;19.70;64.58
24558;BME280;12726;49.148;8.582;2022-07-11T06:35:32;101054.63;;;19.91;62.97
24558;BME280;12726;49.148;8.582;2022-07-11T06:38:18;101057.75;;;20.05;62.04
24558;BME280;12726;49.148;8.582;2022-07-11T06:41:06;101063.13;;;20.22;62.02
24558;BME280;12726;49.148;8.582;2022-07-11T06:43:52;101065.38;;;20.30;61.81
24558;BME280;12726;49.148;8.582;2022-07-11T06:46:37;101062.25;;;20.48;60.98
24558;BME280;12726;49.148;8.582;2022-07-11T06:49:23;101062.47;;;20.74;60.54
24558;BME280;12726;49.148;8.582;2022-07-11T06:52:08;101066.22;;;21.09;59.24
24558;BME280;12726;49.148;8.582;2022-07-11T06:54:54;101056.78;;;21.37;57.50
24558;BME280;12726;49.148;8.582;2022-07-11T06:57:41;101062.81;;;21.39;56.08
24558;BME280;12726;49.148;8.582;2022-07-11T07:00:26;101051.06;;;21.49;57.19
24558;BME280;12726;49.148;8.582;2022-07-11T07:03:12;101040.41;;;21.58;55.82
24558;BME280;12726;49.148;8.582;2022-07-11T07:05:58;101052.59;;;22.07;55.28
24558;BME280;12726;49.148;8.582;2022-07-11T07:08:43;101052.88;;;22.51;53.48
24558;BME280;12726;49.148;8.582;2022-07-11T07:11:28;101049.56;;;22.80;51.44
24558;BME280;12726;49.148;8.582;2022-07-11T07:14:15;101044.00;;;23.69;49.45
24558;BME280;12726;49.148;8.582;2022-07-11T07:17:01;101044.31;;;24.41;47.19
24558;BME280;12726;49.148;8.582;2022-07-11T07:19:46;101044.31;;;24.70;46.70
24558;BME280;12726;49.148;8.582;2022-07-11T07:22:32;101043.44;;;24.45;46.29
24558;BME280;12726;49.148;8.582;2022-07-11T07:25:18;101048.13;;;24.45;47.13
24558;BME280;12726;49.148;8.582;2022-07-11T07:28:04;101039.59;;;24.46;46.04
24558;BME280;12726;49.148;8.582;2022-07-11T07:30:50;101044.41;;;24.88;45.63
24558;BME280;12726;49.148;8.582;2022-07-11T07:33:36;101036.25;;;25.07;45.38
24558;BME280;12726;49.148;8.582;2022-07-11T07:36:21;101045.97;;;25.00;45.28
24558;BME280;12726;49.148;8.582;2022-07-11T07:39:07;101049.66;;;25.56;44.99
24558;BME280;12726;49.148;8.582;2022-07-11T07:41:53;101041.88;;;25.82;44.28
24558;BME280;12726;49.148;8.582;2022-07-11T07:44:39;101047.31;;;25.68;45.84
24558;BME280;12726;49.148;8.582;2022-07-11T07:47:25;101051.25;;;26.00;43.85
24558;BME280;12726;49.148;8.582;2022-07-11T07:50:11;101051.59;;;26.31;43.68
24558;BME280;12726;49.148;8.582;2022-07-11T07:52:57;101044.03;;;26.69;42.64
24558;BME280;12726;49.148;8.582;2022-07-11T07:55:42;101039.38;;;26.97;42.38
24558;BME280;12726;49.148;8.582;2022-07-11T07:58:28;101031.75;;;27.57;39.65
24558;BME280;12726;49.148;8.582;2022-07-11T08:01:13;101030.56;;;27.85;39.12
24558;BME280;12726;49.148;8.582;2022-07-11T08:04:17;101028.94;;;27.07;40.84
24558;BME280;12726;49.148;8.582;2022-07-11T08:07:03;101026.84;;;26.26;42.27
24558;BME280;12726;49.148;8.582;2022-07-11T08:09:48;101026.31;;;26.42;42.13
24558;BME280;12726;49.148;8.582;2022-07-11T08:12:34;101041.56;;;26.67;42.13
24558;BME280;12726;49.148;8.582;2022-07-11T08:15:19;101036.56;;;26.56;42.87
24558;BME280;12726;49.148;8.582;2022-07-11T08:18:05;101041.72;;;27.17;40.94
24558;BME280;12726;49.148;8.582;2022-07-11T08:20:54;101031.47;;;27.58;41.71
24558;BME280;12726;49.148;8.582;2022-07-11T08:23:41;101039.84;;;28.03;41.38
24558;BME280;12726;49.148;8.582;2022-07-11T08:26:26;101029.34;;;28.36;37.07
24558;BME280;12726;49.148;8.582;2022-07-11T08:29:12;101026.59;;;29.06;38.71
24558;BME280;12726;49.148;8.582;2022-07-11T08:31:58;101022.69;;;29.55;36.21
24558;BME280;12726;49.148;8.582;2022-07-11T08:34:44;101027.59;;;29.93;34.68
24558;BME280;12726;49.148;8.582;2022-07-11T08:37:31;101031.16;;;30.36;34.46
24558;BME280;12726;49.148;8.582;2022-07-11T08:40:16;101027.28;;;29.94;34.90
24558;BME280;12726;49.148;8.582;2022-07-11T08:43:02;101028.25;;;30.07;35.33
24558;BME280;12726;49.148;8.582;2022-07-11T08:45:50;101028.88;;;30.30;34.08
24558;BME280;12726;49.148;8.582;2022-07-11T08:48:38;101019.91;;;29.55;34.58
24558;BME280;12726;49.148;8.582;2022-07-11T08:51:24;101018.59;;;29.53;35.50
24558;BME280;12726;49.148;8.582;2022-07-11T08:54:12;101013.44;;;28.19;36.82
24558;BME280;12726;49.148;8.582;2022-07-11T08:56:59;101013.81;;;27.05;39.15
24558;BME280;12726;49.148;8.582;2022-07-11T08:59:47;101023.50;;;26.29;40.09
24558;BME280;12726;49.148;8.582;2022-07-11T09:02:33;101025.09;;;25.97;41.21
24558;BME280;12726;49.148;8.582;2022-07-11T09:05:18;101021.03;;;25.52;42.32
24558;BME280;12726;49.148;8.582;2022-07-11T09:08:04;101016.56;;;25.56;41.15
24558;BME280;12726;49.148;8.582;2022-07-11T09:10:51;101015.88;;;25.46;42.03
24558;BME280;12726;49.148;8.582;2022-07-11T09:13:36;101005.94;;;25.68;42.72
24558;BME280;12726;49.148;8.582;2022-07-11T09:16:21;101013.28;;;26.10;43.28
24558;BME280;12726;49.148;8.582;2022-07-11T09:19:20;101008.03;;;25.77;42.93
24558;BME280;12726;49.148;8.582;2022-07-11T09:22:07;101008.44;;;25.46;43.55
24558;BME280;12726;49.148;8.582;2022-07-11T09:25:12;101018.44;;;25.98;42.16
24558;BME280;12726;49.148;8.582;2022-07-11T09:28:15;101011.44;;;26.38;41.99
24558;BME280;12726;49.148;8.582;2022-07-11T09:31:14;101021.41;;;26.67;39.99
24558;BME280;12726;49.148;8.582;2022-07-11T09:34:05;101020.03;;;26.97;39.22
24558;BME280;12726;49.148;8.582;2022-07-11T09:36:53;101006.63;;;26.44;41.11
24558;BME280;12726;49.148;8.582;2022-07-11T09:39:39;101009.25;;;26.03;40.74
24558;BME280;12726;49.148;8.582;2022-07-11T09:42:45;101013.94;;;26.54;40.47
24558;BME280;12726;49.148;8.582;2022-07-11T09:45:33;101008.28;;;26.12;41.02
24558;BME280;12726;49.148;8.582;2022-07-11T09:48:19;101014.75;;;26.22;40.83
24558;BME280;12726;49.148;8.582;2022-07-11T09:51:05;101014.22;;;26.20;40.85
24558;BME280;12726;49.148;8.582;2022-07-11T09:53:54;101003.59;;;26.13;40.85
24558;BME280;12726;49.148;8.582;2022-07-11T09:56:41;101007.03;;;25.86;41.70
24558;BME280;12726;49.148;8.582;2022-07-11T09:59:27;100997.19;;;25.80;42.62
24558;BME280;12726;49.148;8.582;2022-07-11T10:02:15;101016.72;;;26.02;42.46
24558;BME280;12726;49.148;8.582;2022-07-11T10:05:01;101006.41;;;26.08;41.63
24558;BME280;12726;49.148;8.582;2022-07-11T10:07:48;101002.88;;;26.40;40.21
24558;BME280;12726;49.148;8.582;2022-07-11T10:10:33;101005.88;;;26.57;40.60
24558;BME280;12726;49.148;8.582;2022-07-11T10:13:20;101009.69;;;27.02;38.34
24558;BME280;12726;49.148;8.582;2022-07-11T10:16:12;101007.94;;;27.34;38.71
24558;BME280;12726;49.148;8.582;2022-07-11T10:19:12;101009.25;;;27.63;37.62
24558;BME280;12726;49.148;8.582;2022-07-11T10:22:06;101002.97;;;27.58;37.70
24558;BME280;12726;49.148;8.582;2022-07-11T10:24:58;101014.47;;;26.83;39.79
24558;BME280;12726;49.148;8.582;2022-07-11T10:28:00;101018.88;;;26.70;39.82
24558;BME280;12726;49.148;8.582;2022-07-11T10:30:49;101013.41;;;26.51;39.94
24558;BME280;12726;49.148;8.582;2022-07-11T10:34:03;101007.81;;;26.57;40.33
24558;BME280;12726;49.148;8.582;2022-07-11T10:36:49;101004.31;;;26.51;40.88
24558;BME280;12726;49.148;8.582;2022-07-11T10:39:35;101000.94;;;26.54;40.56
24558;BME280;12726;49.148;8.582;2022-07-11T10:42:21;101000.31;;;26.43;40.55
24558;BME280;12726;49.148;8.582;2022-07-11T10:45:07;101006.25;;;26.50;40.22
24558;BME280;12726;49.148;8.582;2022-07-11T10:47:54;101008.81;;;26.47;40.91
24558;BME280;12726;49.148;8.582;2022-07-11T10:50:41;101006.97;;;26.42;40.81
24558;BME280;12726;49.148;8.582;2022-07-11T10:53:34;101005.66;;;26.81;40.61
24558;BME280;12726;49.148;8.582;2022-07-11T10:56:45;100995.47;;;26.95;41.66
24558;BME280;12726;49.148;8.582;2022-07-11T10:59:31;101005.47;;;26.77;39.82
24558;BME280;12726;49.148;8.582;2022-07-11T11:02:17;100999.72;;;26.74;42.43
24558;BME280;12726;49.148;8.582;2022-07-11T11:05:03;100986.88;;;26.97;40.59
24558;BME280;12726;49.148;8.582;2022-07-11T11:07:50;100988.50;;;27.11;39.81
24558;BME280;12726;49.148;8.582;2022-07-11T11:10:44;100991.03;;;27.71;37.69
24558;BME280;12726;49.148;8.582;2022-07-11T11:13:32;100994.88;;;28.51;36.83
24558;BME280;12726;49.148;8.582;2022-07-11T11:16:21;100991.69;;;28.66;36.24
24558;BME280;12726;49.148;8.582;2022-07-11T11:22:32;100975.91;;;27.69;37.54
24558;BME280;12726;49.148;8.582;2022-07-11T11:25:20;100985.06;;;27.55;38.22
24558;BME280;12726;49.148;8.582;2022-07-11T11:28:06;100976.41;;;27.35;39.10
24558;BME280;12726;49.148;8.582;2022-07-11T11:30:53;100981.75;;;27.04;40.49
24558;BME280;12726;49.148;8.582;2022-07-11T11:33:39;100986.97;;;26.78;40.57
24558;BME280;12726;49.148;8.582;2022-07-11T11:36:26;100987.47;;;26.94;41.49
24558;BME280;12726;49.148;8.582;2022-07-11T11:39:21;100986.66;;;26.93;39.79
24558;BME280;12726;49.148;8.582;2022-07-11T11:42:11;100985.66;;;27.03;39.40
24558;BME280;12726;49.148;8.582;2022-07-11T11:44:57;100989.34;;;26.98;40.38
24558;BME280;12726;49.148;8.582;2022-07-11T11:47:47;100981.16;;;27.43;39.88
24558;BME280;12726;49.148;8.582;2022-07-11T11:50:32;100982.75;;;27.35;39.56
24558;BME280;12726;49.148;8.582;2022-07-11T11:53:18;100978.44;;;27.29;39.08
24558;BME280;12726;49.148;8.582;2022-07-11T11:56:11;100976.69;;;28.27;38.15
24558;BME280;12726;49.148;8.582;2022-07-11T11:58:59;100975.53;;;28.28;37.33
24558;BME280;12726;49.148;8.582;2022-07-11T12:01:46;100972.66;;;29.21;36.10
24558;BME280;12726;49.148;8.582;2022-07-11T12:04:33;100970.94;;;29.94;36.39
24558;BME280;12726;49.148;8.582;2022-07-11T12:07:24;100958.69;;;29.69;35.88
24558;BME280;12726;49.148;8.582;2022-07-11T12:10:10;100961.94;;;30.06;34.94
24558;BME280;12726;49.148;8.582;2022-07-11T12:12:56;100956.81;;;30.33;35.08
24558;BME280;12726;49.148;8.582;2022-07-11T12:15:43;100960.59;;;30.76;33.71
24558;BME280;12726;49.148;8.582;2022-07-11T12:18:42;100959.03;;;30.57;32.42
24558;BME280;12726;49.148;8.582;2022-07-11T12:21:28;100954.34;;;30.41;33.60
24558;BME280;12726;49.148;8.582;2022-07-11T12:24:16;100965.53;;;29.63;34.76
24558;BME280;12726;49.148;8.582;2022-07-11T12:27:04;100965.38;;;29.51;36.22
24558;BME280;12726;49.148;8.582;2022-07-11T12:29:49;100960.84;;;28.90;36.51
24558;BME280;12726;49.148;8.582;2022-07-11T12:32:36;100955.97;;;28.25;37.72
24558;BME280;12726;49.148;8.582;2022-07-11T12:35:22;100959.56;;;28.25;37.13
24558;BME280;12726;49.148;8.582;2022-07-11T12:38:07;100963.19;;;29.22;34.86
24558;BME280;12726;49.148;8.582;2022-07-11T12:41:01;100956.84;;;29.30;35.10
24558;BME280;12726;49.148;8.582;2022-07-11T12:43:47;100956.56;;;29.83;34.43
24558;BME280;12726;49.148;8.582;2022-07-11T12:46:51;100954.78;;;29.44;34.17
24558;BME280;12726;49.148;8.582;2022-07-11T12:49:38;100947.03;;;29.15;34.64
24558;BME280;12726;49.148;8.582;2022-07-11T12:52:36;100943.22;;;28.86;35.36
24558;BME280;12726;49.148;8.582;2022-07-11T12:55:23;100936.81;;;28.37;35.08
24558;BME280;12726;49.148;8.582;2022-07-11T12:58:10;100937.72;;;28.01;36.39
24558;BME280;12726;49.148;8.582;2022-07-11T13:00:58;100937.00;;;27.51;38.51
24558;BME280;12726;49.148;8.582;2022-07-11T13:03:43;100932.50;;;28.22;37.04
24558;BME280;12726;49.148;8.582;2022-07-11T13:06:30;100928.19;;;28.78;37.18
24558;BME280;12726;49.148;8.582;2022-07-11T13:09:33;100934.44;;;28.84;35.60
24558;BME280;12726;49.148;8.582;2022-07-11T13:12:18;100930.69;;;28.88;34.77
24558;BME280;12726;49.148;8.582;2022-07-11T13:15:05;100933.41;;;28.79;35.50
24558;BME280;12726;49.148;8.582;2022-07-11T13:17:54;100925.59;;;28.42;36.13
24558;BME280;12726;49.148;8.582;2022-07-11T13:20:40;100921.78;;;28.07;36.85
24558;BME280;12726;49.148;8.582;2022-07-11T13:23:27;100930.63;;;27.64;37.12
24558;BME280;12726;49.148;8.582;2022-07-11T13:26:12;100934.34;;;27.46;38.86
24558;BME280;12726;49.148;8.582;2022-07-11T13:28:58;100925.34;;;27.18;38.53
24558;BME280;12726;49.148;8.582;2022-07-11T13:31:44;100931.91;;;26.95;38.74
24558;BME280;12726;49.148;8.582;2022-07-11T13:34:30;100924.34;;;27.37;38.52
24558;BME280;12726;49.148;8.582;2022-07-11T13:37:15;100921.72;;;27.67;38.36
24558;BME280;12726;49.148;8.582;2022-07-11T13:40:03;100925.22;;;27.59;38.53
24558;BME280;12726;49.148;8.582;2022-07-11T13:42:49;100930.25;;;27.57;38.28
24558;BME280;12726;49.148;8.582;2022-07-11T13:45:35;100928.81;;;27.60;38.47
24558;BME280;12726;49.148;8.582;2022-07-11T13:48:21;100921.78;;;27.04;38.68
24558;BME280;12726;49.148;8.582;2022-07-11T13:51:06;100924.94;;;26.84;39.38
24558;BME280;12726;49.148;8.582;2022-07-11T13:53:52;100928.94;;;27.05;39.15
24558;BME280;12726;49.148;8.582;2022-07-11T13:56:39;100931.03;;;27.22;38.82
24558;BME280;12726;49.148;8.582;2022-07-11T13:59:24;100928.22;;;27.36;39.34
24558;BME280;12726;49.148;8.582;2022-07-11T14:02:10;100927.59;;;27.52;37.52
24558;BME280;12726;49.148;8.582;2022-07-11T14:04:55;100932.19;;;27.57;37.94
24558;BME280;12726;49.148;8.582;2022-07-11T14:07:41;100930.69;;;27.37;37.90
24558;BME280;12726;49.148;8.582;2022-07-11T14:10:27;100921.91;;;27.35;38.01
24558;BME280;12726;49.148;8.582;2022-07-11T14:13:13;100923.34;;;27.33;38.42
24558;BME280;12726;49.148;8.582;2022-07-11T14:15:59;100923.47;;;27.50;38.95
24558;BME280;12726;49.148;8.582;2022-07-11T14:18:44;100925.69;;;27.39;39.05
24558;BME280;12726;49.148;8.582;2022-07-11T14:21:30;100924.84;;;27.39;39.21
24558;BME280;12726;49.148;8.582;2022-07-11T14:24:15;100919.56;;;27.28;38.65
24558;BME280;12726;49.148;8.582;2022-07-11T14:27:01;100919.03;;;27.40;39.64
24558;BME280;12726;49.148;8.582;2022-07-11T14:29:49;100915.81;;;27.47;37.89
24558;BME280;12726;49.148;8.582;2022-07-11T14:32:35;100922.09;;;27.39;39.47
24558;BME280;12726;49.148;8.582;2022-07-11T14:35:21;100916.13;;;27.45;38.22
24558;BME280;12726;49.148;8.582;2022-07-11T14:38:07;100901.91;;;27.38;39.13